sensor_id;sensor_type;location;lat;lon;timestamp;P1;durP1;ratioP1;P2;durP2;ratioP2
37997;SDS011;24079;51.824;4.682;2023-07-08T00:00:28;6.55;;;3.42;;
37997;SDS011;24079;51.824;4.682;2023-07-08T00:02:54;10.48;;;3.53;;
37997;SDS011;24079;51.824;4.682;2023-07-08T00:05:21;9.25;;;3.50;;
37997;SDS011;24079;51.824;4.682;2023-07-08T00:07:49;5.38;;;3.65;;
37997;SDS011;24079;51.824;4.682;2023-07-08T00:10:16;6.90;;;3.13;;
37997;SDS011;24079;51.824;4.682;2023-07-08T00:12:46;6.25;;;3.65;;
37997;SDS011;24079;51.824;4.682;2023-07-08T00:15:15;6.70;;;3.20;;
37997;SDS011;24079;51.824;4.682;2023-07-08T00:17:42;7.03;;;3.80;;
37997;SDS011;24079;51.824;4.682;2023-07-08T00:20:51;5.22;;;3.30;;
37997;SDS011;24079;51.824;4.682;2023-07-08T00:23:02;9.05;;;3.72;;
37997;SDS011;24079;51.824;4.682;2023-07-08T00:25:29;5.70;;;3.13;;
37997;SDS011;24079;51.824;4.682;2023-07-08T00:27:56;7.88;;;4.10;;
37997;SDS011;24079;51.824;4.682;2023-07-08T00:30:25;7.93;;;3.30;;
37997;SDS011;24079;51.824;4.682;2023-07-08T00:32:55;5.30;;;3.40;;
37997;SDS011;24079;51.824;4.682;2023-07-08T00:35:22;7.47;;;3.50;;
37997;SDS011;24079;51.824;4.682;2023-07-08T00:37:54;6.03;;;3.30;;
37997;SDS011;24079;51.824;4.682;2023-07-08T00:40:26;7.70;;;3.75;;
37997;SDS011;24079;51.824;4.682;2023-07-08T00:42:58;6.53;;;3.85;;
37997;SDS011;24079;51.824;4.682;2023-07-08T00:48:16;6.82;;;3.80;;
37997;SDS011;24079;51.824;4.682;2023-07-08T00:50:50;4.85;;;3.55;;
37997;SDS011;24079;51.824;4.682;2023-07-08T00:58:46;7.13;;;4.00;;
37997;SDS011;24079;51.824;4.682;2023-07-08T01:01:22;7.45;;;3.80;;
37997;SDS011;24079;51.824;4.682;2023-07-08T01:03:49;8.40;;;3.10;;
37997;SDS011;24079;51.824;4.682;2023-07-08T01:06:23;9.38;;;4.10;;
37997;SDS011;24079;51.824;4.682;2023-07-08T01:09:00;7.72;;;3.45;;
37997;SDS011;24079;51.824;4.682;2023-07-08T01:11:28;5.45;;;3.50;;
37997;SDS011;24079;51.824;4.682;2023-07-08T01:13:55;6.70;;;3.85;;
37997;SDS011;24079;51.824;4.682;2023-07-08T01:16:23;10.02;;;3.85;;
37997;SDS011;24079;51.824;4.682;2023-07-08T01:18:50;7.93;;;4.13;;
37997;SDS011;24079;51.824;4.682;2023-07-08T01:21:36;8.15;;;4.20;;
37997;SDS011;24079;51.824;4.682;2023-07-08T01:24:07;6.53;;;3.45;;
37997;SDS011;24079;51.824;4.682;2023-07-08T01:26:40;8.75;;;3.70;;
37997;SDS011;24079;51.824;4.682;2023-07-08T01:29:10;6.78;;;4.10;;
37997;SDS011;24079;51.824;4.682;2023-07-08T01:31:37;6.35;;;4.00;;
37997;SDS011;24079;51.824;4.682;2023-07-08T01:34:04;5.55;;;3.72;;
37997;SDS011;24079;51.824;4.682;2023-07-08T01:36:31;8.70;;;4.00;;
37997;SDS011;24079;51.824;4.682;2023-07-08T01:39:05;6.25;;;3.80;;
37997;SDS011;24079;51.824;4.682;2023-07-08T01:41:30;7.72;;;3.60;;
37997;SDS011;24079;51.824;4.682;2023-07-08T01:43:56;7.00;;;3.90;;
37997;SDS011;24079;51.824;4.682;2023-07-08T01:46:25;5.50;;;3.50;;
37997;SDS011;24079;51.824;4.682;2023-07-08T01:48:52;6.57;;;3.97;;
37997;SDS011;24079;51.824;4.682;2023-07-08T01:51:21;8.18;;;4.05;;
37997;SDS011;24079;51.824;4.682;2023-07-08T01:53:48;6.63;;;3.60;;
37997;SDS011;24079;51.824;4.682;2023-07-08T01:56:14;8.00;;;3.65;;
37997;SDS011;24079;51.824;4.682;2023-07-08T01:58:41;5.30;;;3.30;;
37997;SDS011;24079;51.824;4.682;2023-07-08T02:01:07;9.57;;;4.18;;
37997;SDS011;24079;51.824;4.682;2023-07-08T02:03:34;5.32;;;3.60;;
37997;SDS011;24079;51.824;4.682;2023-07-08T02:06:00;5.53;;;3.65;;
37997;SDS011;24079;51.824;4.682;2023-07-08T02:08:26;11.05;;;3.85;;
37997;SDS011;24079;51.824;4.682;2023-07-08T02:10:54;6.30;;;3.88;;
37997;SDS011;24079;51.824;4.682;2023-07-08T02:13:22;9.88;;;3.58;;
37997;SDS011;24079;51.824;4.682;2023-07-08T02:15:49;5.97;;;3.45;;
37997;SDS011;24079;51.824;4.682;2023-07-08T02:18:17;5.20;;;3.55;;
37997;SDS011;24079;51.824;4.682;2023-07-08T02:20:46;5.30;;;3.35;;
37997;SDS011;24079;51.824;4.682;2023-07-08T02:23:13;5.93;;;3.13;;
37997;SDS011;24079;51.824;4.682;2023-07-08T02:25:40;5.53;;;3.40;;
37997;SDS011;24079;51.824;4.682;2023-07-08T02:28:06;6.13;;;3.65;;
37997;SDS011;24079;51.824;4.682;2023-07-08T02:30:32;7.32;;;3.75;;
37997;SDS011;24079;51.824;4.682;2023-07-08T02:32:58;9.60;;;3.70;;
37997;SDS011;24079;51.824;4.682;2023-07-08T02:35:25;5.97;;;3.30;;
37997;SDS011;24079;51.824;4.682;2023-07-08T02:37:54;4.50;;;3.38;;
37997;SDS011;24079;51.824;4.682;2023-07-08T02:40:21;6.57;;;3.90;;
37997;SDS011;24079;51.824;4.682;2023-07-08T02:42:48;7.13;;;3.72;;
37997;SDS011;24079;51.824;4.682;2023-07-08T02:45:15;6.75;;;3.28;;
37997;SDS011;24079;51.824;4.682;2023-07-08T02:47:42;6.65;;;3.78;;
37997;SDS011;24079;51.824;4.682;2023-07-08T02:50:09;6.75;;;3.85;;
37997;SDS011;24079;51.824;4.682;2023-07-08T02:52:36;7.32;;;3.67;;
37997;SDS011;24079;51.824;4.682;2023-07-08T02:55:02;5.95;;;3.20;;
37997;SDS011;24079;51.824;4.682;2023-07-08T02:57:28;7.03;;;3.75;;
37997;SDS011;24079;51.824;4.682;2023-07-08T02:59:54;4.95;;;3.20;;
37997;SDS011;24079;51.824;4.682;2023-07-08T03:02:21;6.05;;;3.10;;
37997;SDS011;24079;51.824;4.682;2023-07-08T03:04:47;8.40;;;3.50;;
37997;SDS011;24079;51.824;4.682;2023-07-08T03:07:15;7.53;;;3.55;;
37997;SDS011;24079;51.824;4.682;2023-07-08T03:09:42;5.38;;;3.88;;
37997;SDS011;24079;51.824;4.682;2023-07-08T03:12:09;5.20;;;3.35;;
37997;SDS011;24079;51.824;4.682;2023-07-08T03:14:36;5.28;;;3.20;;
37997;SDS011;24079;51.824;4.682;2023-07-08T03:17:03;7.47;;;3.97;;
37997;SDS011;24079;51.824;4.682;2023-07-08T03:19:30;5.75;;;3.42;;
37997;SDS011;24079;51.824;4.682;2023-07-08T03:21:56;4.80;;;3.45;;
37997;SDS011;24079;51.824;4.682;2023-07-08T03:24:22;5.20;;;3.70;;
37997;SDS011;24079;51.824;4.682;2023-07-08T03:26:48;12.98;;;3.65;;
37997;SDS011;24079;51.824;4.682;2023-07-08T03:29:19;5.07;;;3.37;;
37997;SDS011;24079;51.824;4.682;2023-07-08T03:31:46;4.60;;;3.42;;
37997;SDS011;24079;51.824;4.682;2023-07-08T03:34:13;7.82;;;3.55;;
37997;SDS011;24079;51.824;4.682;2023-07-08T03:36:45;7.38;;;3.90;;
37997;SDS011;24079;51.824;4.682;2023-07-08T03:39:17;5.07;;;3.33;;
37997;SDS011;24079;51.824;4.682;2023-07-08T03:41:44;8.75;;;4.13;;
37997;SDS011;24079;51.824;4.682;2023-07-08T03:44:11;5.20;;;3.88;;
37997;SDS011;24079;51.824;4.682;2023-07-08T03:46:38;7.32;;;3.75;;
37997;SDS011;24079;51.824;4.682;2023-07-08T03:49:05;5.28;;;3.50;;
37997;SDS011;24079;51.824;4.682;2023-07-08T03:51:33;6.45;;;3.55;;
37997;SDS011;24079;51.824;4.682;2023-07-08T03:54:01;8.30;;;3.53;;
37997;SDS011;24079;51.824;4.682;2023-07-08T03:56:27;6.80;;;3.40;;
37997;SDS011;24079;51.824;4.682;2023-07-08T03:58:53;7.28;;;3.92;;
37997;SDS011;24079;51.824;4.682;2023-07-08T04:01:21;6.55;;;3.85;;
37997;SDS011;24079;51.824;4.682;2023-07-08T04:03:50;4.90;;;3.33;;
37997;SDS011;24079;51.824;4.682;2023-07-08T04:06:18;5.95;;;3.60;;
37997;SDS011;24079;51.824;4.682;2023-07-08T04:08:44;8.65;;;3.35;;
37997;SDS011;24079;51.824;4.682;2023-07-08T04:11:14;5.53;;;3.58;;
37997;SDS011;24079;51.824;4.682;2023-07-08T04:13:42;7.78;;;3.42;;
37997;SDS011;24079;51.824;4.682;2023-07-08T04:16:09;6.15;;;3.40;;
37997;SDS011;24079;51.824;4.682;2023-07-08T04:18:44;6.97;;;2.97;;
37997;SDS011;24079;51.824;4.682;2023-07-08T04:21:10;6.40;;;3.40;;
37997;SDS011;24079;51.824;4.682;2023-07-08T04:23:36;4.88;;;3.47;;
37997;SDS011;24079;51.824;4.682;2023-07-08T04:26:02;10.30;;;3.70;;
37997;SDS011;24079;51.824;4.682;2023-07-08T04:28:28;7.28;;;3.65;;
37997;SDS011;24079;51.824;4.682;2023-07-08T04:30:55;5.22;;;3.80;;
37997;SDS011;24079;51.824;4.682;2023-07-08T04:33:21;6.30;;;3.60;;
37997;SDS011;24079;51.824;4.682;2023-07-08T04:35:47;5.85;;;3.45;;
37997;SDS011;24079;51.824;4.682;2023-07-08T04:38:14;5.80;;;3.45;;
37997;SDS011;24079;51.824;4.682;2023-07-08T04:40:52;5.35;;;3.55;;
37997;SDS011;24079;51.824;4.682;2023-07-08T04:43:19;7.70;;;3.35;;
37997;SDS011;24079;51.824;4.682;2023-07-08T04:45:50;9.40;;;3.33;;
37997;SDS011;24079;51.824;4.682;2023-07-08T04:50:47;6.05;;;3.60;;
37997;SDS011;24079;51.824;4.682;2023-07-08T04:53:15;6.18;;;3.70;;
37997;SDS011;24079;51.824;4.682;2023-07-08T04:55:46;8.15;;;3.80;;
37997;SDS011;24079;51.824;4.682;2023-07-08T04:58:16;8.82;;;3.60;;
37997;SDS011;24079;51.824;4.682;2023-07-08T05:00:42;8.02;;;3.63;;
37997;SDS011;24079;51.824;4.682;2023-07-08T05:03:09;5.90;;;3.63;;
37997;SDS011;24079;51.824;4.682;2023-07-08T05:05:35;7.07;;;3.45;;
37997;SDS011;24079;51.824;4.682;2023-07-08T05:08:01;8.10;;;3.30;;
37997;SDS011;24079;51.824;4.682;2023-07-08T05:10:27;5.22;;;3.80;;
37997;SDS011;24079;51.824;4.682;2023-07-08T05:12:53;9.85;;;3.63;;
37997;SDS011;24079;51.824;4.682;2023-07-08T05:15:18;7.20;;;4.03;;
37997;SDS011;24079;51.824;4.682;2023-07-08T05:17:45;6.68;;;3.80;;
37997;SDS011;24079;51.824;4.682;2023-07-08T05:20:12;10.98;;;3.55;;
37997;SDS011;24079;51.824;4.682;2023-07-08T05:22:39;5.75;;;3.42;;
37997;SDS011;24079;51.824;4.682;2023-07-08T05:25:05;6.38;;;3.70;;
37997;SDS011;24079;51.824;4.682;2023-07-08T05:27:32;5.40;;;3.17;;
37997;SDS011;24079;51.824;4.682;2023-07-08T05:30:02;5.22;;;3.38;;
37997;SDS011;24079;51.824;4.682;2023-07-08T05:32:29;9.27;;;3.97;;
37997;SDS011;24079;51.824;4.682;2023-07-08T05:34:54;6.65;;;3.45;;
37997;SDS011;24079;51.824;4.682;2023-07-08T05:37:20;5.72;;;3.50;;
37997;SDS011;24079;51.824;4.682;2023-07-08T05:39:53;6.43;;;3.80;;
37997;SDS011;24079;51.824;4.682;2023-07-08T05:42:20;7.55;;;3.95;;
37997;SDS011;24079;51.824;4.682;2023-07-08T05:44:47;8.38;;;4.30;;
37997;SDS011;24079;51.824;4.682;2023-07-08T05:47:14;6.00;;;3.67;;
37997;SDS011;24079;51.824;4.682;2023-07-08T05:49:40;6.38;;;3.72;;
37997;SDS011;24079;51.824;4.682;2023-07-08T05:52:07;5.97;;;4.07;;
37997;SDS011;24079;51.824;4.682;2023-07-08T05:54:37;7.53;;;3.90;;
37997;SDS011;24079;51.824;4.682;2023-07-08T05:57:04;10.88;;;4.20;;
37997;SDS011;24079;51.824;4.682;2023-07-08T05:59:35;8.13;;;3.72;;
37997;SDS011;24079;51.824;4.682;2023-07-08T06:02:02;9.65;;;3.60;;
37997;SDS011;24079;51.824;4.682;2023-07-08T06:04:29;5.18;;;3.30;;
37997;SDS011;24079;51.824;4.682;2023-07-08T06:06:56;7.10;;;4.10;;
37997;SDS011;24079;51.824;4.682;2023-07-08T06:09:23;8.65;;;4.35;;
37997;SDS011;24079;51.824;4.682;2023-07-08T06:11:49;6.82;;;3.97;;
37997;SDS011;24079;51.824;4.682;2023-07-08T06:14:15;5.40;;;3.55;;
37997;SDS011;24079;51.824;4.682;2023-07-08T06:16:41;7.07;;;3.30;;
37997;SDS011;24079;51.824;4.682;2023-07-08T06:19:07;10.60;;;4.30;;
37997;SDS011;24079;51.824;4.682;2023-07-08T06:21:34;11.15;;;4.90;;
37997;SDS011;24079;51.824;4.682;2023-07-08T06:24:00;10.30;;;5.47;;
37997;SDS011;24079;51.824;4.682;2023-07-08T06:26:26;10.93;;;6.18;;
37997;SDS011;24079;51.824;4.682;2023-07-08T06:28:52;13.45;;;5.43;;
37997;SDS011;24079;51.824;4.682;2023-07-08T06:31:22;7.18;;;4.47;;
37997;SDS011;24079;51.824;4.682;2023-07-08T06:33:48;17.30;;;4.00;;
37997;SDS011;24079;51.824;4.682;2023-07-08T06:36:14;5.80;;;3.90;;
37997;SDS011;24079;51.824;4.682;2023-07-08T06:38:39;5.95;;;3.60;;
37997;SDS011;24079;51.824;4.682;2023-07-08T06:41:05;6.75;;;3.78;;
37997;SDS011;24079;51.824;4.682;2023-07-08T06:43:31;8.57;;;3.60;;
37997;SDS011;24079;51.824;4.682;2023-07-08T06:45:56;5.50;;;3.35;;
37997;SDS011;24079;51.824;4.682;2023-07-08T06:48:22;9.20;;;3.70;;
37997;SDS011;24079;51.824;4.682;2023-07-08T06:50:49;6.57;;;3.10;;
37997;SDS011;24079;51.824;4.682;2023-07-08T06:53:16;5.88;;;3.55;;
37997;SDS011;24079;51.824;4.682;2023-07-08T06:55:44;8.10;;;3.67;;
37997;SDS011;24079;51.824;4.682;2023-07-08T06:58:10;6.00;;;3.67;;
37997;SDS011;24079;51.824;4.682;2023-07-08T07:00:36;9.75;;;4.50;;
37997;SDS011;24079;51.824;4.682;2023-07-08T07:03:02;6.72;;;3.70;;
37997;SDS011;24079;51.824;4.682;2023-07-08T07:05:28;7.65;;;3.55;;
37997;SDS011;24079;51.824;4.682;2023-07-08T07:07:54;6.72;;;3.85;;
37997;SDS011;24079;51.824;4.682;2023-07-08T07:10:21;7.63;;;3.78;;
37997;SDS011;24079;51.824;4.682;2023-07-08T07:12:48;9.05;;;4.00;;
37997;SDS011;24079;51.824;4.682;2023-07-08T07:15:14;9.35;;;4.40;;
37997;SDS011;24079;51.824;4.682;2023-07-08T07:17:40;11.70;;;4.57;;
37997;SDS011;24079;51.824;4.682;2023-07-08T07:20:06;12.00;;;4.68;;
37997;SDS011;24079;51.824;4.682;2023-07-08T07:22:33;9.30;;;4.55;;
37997;SDS011;24079;51.824;4.682;2023-07-08T07:24:59;9.90;;;5.10;;
37997;SDS011;24079;51.824;4.682;2023-07-08T07:27:25;8.70;;;4.05;;
37997;SDS011;24079;51.824;4.682;2023-07-08T07:29:51;9.20;;;4.82;;
37997;SDS011;24079;51.824;4.682;2023-07-08T07:32:18;7.18;;;4.63;;
37997;SDS011;24079;51.824;4.682;2023-07-08T07:34:48;7.68;;;4.70;;
37997;SDS011;24079;51.824;4.682;2023-07-08T07:37:15;10.93;;;5.00;;
37997;SDS011;24079;51.824;4.682;2023-07-08T07:39:42;11.48;;;4.88;;
37997;SDS011;24079;51.824;4.682;2023-07-08T07:42:09;8.85;;;5.03;;
37997;SDS011;24079;51.824;4.682;2023-07-08T07:44:36;9.40;;;5.15;;
37997;SDS011;24079;51.824;4.682;2023-07-08T07:47:05;8.80;;;4.68;;
37997;SDS011;24079;51.824;4.682;2023-07-08T07:49:32;8.20;;;4.47;;
37997;SDS011;24079;51.824;4.682;2023-07-08T07:51:58;8.48;;;5.22;;
37997;SDS011;24079;51.824;4.682;2023-07-08T07:54:24;10.23;;;5.15;;
37997;SDS011;24079;51.824;4.682;2023-07-08T07:56:51;10.82;;;5.53;;
37997;SDS011;24079;51.824;4.682;2023-07-08T07:59:17;10.35;;;4.93;;
37997;SDS011;24079;51.824;4.682;2023-07-08T08:01:43;9.13;;;4.32;;
37997;SDS011;24079;51.824;4.682;2023-07-08T08:04:09;6.80;;;4.18;;
37997;SDS011;24079;51.824;4.682;2023-07-08T08:06:36;12.27;;;4.47;;
37997;SDS011;24079;51.824;4.682;2023-07-08T08:09:03;9.80;;;3.75;;
37997;SDS011;24079;51.824;4.682;2023-07-08T08:11:29;6.82;;;4.53;;
37997;SDS011;24079;51.824;4.682;2023-07-08T08:13:55;11.85;;;4.45;;
37997;SDS011;24079;51.824;4.682;2023-07-08T08:16:22;7.55;;;4.57;;
37997;SDS011;24079;51.824;4.682;2023-07-08T08:18:49;8.13;;;4.78;;
37997;SDS011;24079;51.824;4.682;2023-07-08T08:21:15;12.10;;;5.18;;
37997;SDS011;24079;51.824;4.682;2023-07-08T08:23:42;8.23;;;4.93;;
37997;SDS011;24079;51.824;4.682;2023-07-08T08:26:08;10.75;;;5.28;;
37997;SDS011;24079;51.824;4.682;2023-07-08T08:28:34;12.13;;;4.25;;
37997;SDS011;24079;51.824;4.682;2023-07-08T08:31:00;7.88;;;4.60;;
37997;SDS011;24079;51.824;4.682;2023-07-08T08:33:26;10.75;;;4.72;;
37997;SDS011;24079;51.824;4.682;2023-07-08T08:35:53;13.68;;;5.03;;
37997;SDS011;24079;51.824;4.682;2023-07-08T08:38:19;6.25;;;4.43;;
37997;SDS011;24079;51.824;4.682;2023-07-08T08:40:45;7.53;;;5.10;;
37997;SDS011;24079;51.824;4.682;2023-07-08T08:43:13;10.98;;;5.18;;
37997;SDS011;24079;51.824;4.682;2023-07-08T08:48:36;8.23;;;4.53;;
37997;SDS011;24079;51.824;4.682;2023-07-08T08:51:15;11.20;;;5.10;;
37997;SDS011;24079;51.824;4.682;2023-07-08T08:53:42;12.43;;;5.05;;
37997;SDS011;24079;51.824;4.682;2023-07-08T08:56:30;9.55;;;4.88;;
37997;SDS011;24079;51.824;4.682;2023-07-08T09:01:46;8.90;;;5.22;;
37997;SDS011;24079;51.824;4.682;2023-07-08T09:04:17;11.52;;;4.97;;
37997;SDS011;24079;51.824;4.682;2023-07-08T09:06:48;7.55;;;4.82;;
37997;SDS011;24079;51.824;4.682;2023-07-08T09:09:17;12.40;;;5.13;;
37997;SDS011;24079;51.824;4.682;2023-07-08T09:11:51;8.70;;;5.03;;
37997;SDS011;24079;51.824;4.682;2023-07-08T09:14:27;10.90;;;5.40;;
37997;SDS011;24079;51.824;4.682;2023-07-08T09:27:47;14.10;;;5.95;;
37997;SDS011;24079;51.824;4.682;2023-07-08T09:30:14;11.45;;;5.60;;
37997;SDS011;24079;51.824;4.682;2023-07-08T09:32:43;9.50;;;5.90;;
37997;SDS011;24079;51.824;4.682;2023-07-08T09:35:09;11.35;;;5.18;;
37997;SDS011;24079;51.824;4.682;2023-07-08T09:38:06;10.65;;;6.28;;
37997;SDS011;24079;51.824;4.682;2023-07-08T09:40:33;9.70;;;5.65;;
37997;SDS011;24079;51.824;4.682;2023-07-08T09:43:05;13.48;;;6.07;;
37997;SDS011;24079;51.824;4.682;2023-07-08T09:45:45;10.35;;;5.47;;
37997;SDS011;24079;51.824;4.682;2023-07-08T09:50:51;8.38;;;5.68;;
37997;SDS011;24079;51.824;4.682;2023-07-08T09:53:19;13.18;;;5.70;;
37997;SDS011;24079;51.824;4.682;2023-07-08T09:55:45;9.63;;;5.30;;
37997;SDS011;24079;51.824;4.682;2023-07-08T09:58:13;11.30;;;5.40;;
37997;SDS011;24079;51.824;4.682;2023-07-08T10:00:50;12.20;;;5.82;;
37997;SDS011;24079;51.824;4.682;2023-07-08T10:03:25;8.50;;;4.95;;
37997;SDS011;24079;51.824;4.682;2023-07-08T10:05:54;13.02;;;6.40;;
37997;SDS011;24079;51.824;4.682;2023-07-08T10:08:44;12.73;;;5.85;;
37997;SDS011;24079;51.824;4.682;2023-07-08T10:13:45;9.20;;;5.50;;
37997;SDS011;24079;51.824;4.682;2023-07-08T10:18:53;11.27;;;5.57;;
37997;SDS011;24079;51.824;4.682;2023-07-08T10:29:54;14.50;;;6.00;;
37997;SDS011;24079;51.824;4.682;2023-07-08T10:42:50;10.75;;;5.82;;
37997;SDS011;24079;51.824;4.682;2023-07-08T10:45:26;12.27;;;5.90;;
37997;SDS011;24079;51.824;4.682;2023-07-08T11:07:30;9.43;;;5.85;;
37997;SDS011;24079;51.824;4.682;2023-07-08T11:10:27;9.55;;;5.93;;
37997;SDS011;24079;51.824;4.682;2023-07-08T11:13:01;12.23;;;6.00;;
37997;SDS011;24079;51.824;4.682;2023-07-08T11:15:41;9.75;;;5.82;;
37997;SDS011;24079;51.824;4.682;2023-07-08T11:18:19;8.00;;;6.10;;
37997;SDS011;24079;51.824;4.682;2023-07-08T11:21:06;12.82;;;6.68;;
37997;SDS011;24079;51.824;4.682;2023-07-08T11:23:38;12.55;;;6.30;;
37997;SDS011;24079;51.824;4.682;2023-07-08T11:28:37;14.63;;;5.95;;
37997;SDS011;24079;51.824;4.682;2023-07-08T11:31:03;11.93;;;5.78;;
37997;SDS011;24079;51.824;4.682;2023-07-08T11:33:31;10.00;;;5.70;;
37997;SDS011;24079;51.824;4.682;2023-07-08T11:35:59;15.05;;;6.05;;
37997;SDS011;24079;51.824;4.682;2023-07-08T11:38:28;9.30;;;5.45;;
37997;SDS011;24079;51.824;4.682;2023-07-08T11:40:58;14.75;;;6.15;;
37997;SDS011;24079;51.824;4.682;2023-07-08T11:43:28;10.82;;;5.70;;
37997;SDS011;24079;51.824;4.682;2023-07-08T11:46:18;10.85;;;5.80;;
37997;SDS011;24079;51.824;4.682;2023-07-08T11:48:54;9.57;;;5.85;;
37997;SDS011;24079;51.824;4.682;2023-07-08T11:51:44;8.25;;;5.57;;
37997;SDS011;24079;51.824;4.682;2023-07-08T11:54:29;11.05;;;6.03;;
37997;SDS011;24079;51.824;4.682;2023-07-08T11:59:22;10.07;;;6.22;;
37997;SDS011;24079;51.824;4.682;2023-07-08T12:09:49;14.13;;;6.22;;
37997;SDS011;24079;51.824;4.682;2023-07-08T12:12:30;10.73;;;5.72;;
37997;SDS011;24079;51.824;4.682;2023-07-08T12:14:58;12.00;;;6.00;;
37997;SDS011;24079;51.824;4.682;2023-07-08T12:17:38;11.98;;;5.53;;
37997;SDS011;24079;51.824;4.682;2023-07-08T12:20:13;9.73;;;5.72;;
37997;SDS011;24079;51.824;4.682;2023-07-08T12:25:13;10.73;;;6.05;;
37997;SDS011;24079;51.824;4.682;2023-07-08T12:27:42;11.90;;;6.28;;
37997;SDS011;24079;51.824;4.682;2023-07-08T12:30:10;11.25;;;5.97;;
37997;SDS011;24079;51.824;4.682;2023-07-08T12:32:36;11.90;;;5.85;;
37997;SDS011;24079;51.824;4.682;2023-07-08T12:35:03;10.70;;;5.93;;
37997;SDS011;24079;51.824;4.682;2023-07-08T12:37:30;8.52;;;5.47;;
37997;SDS011;24079;51.824;4.682;2023-07-08T12:39:56;9.57;;;6.00;;
37997;SDS011;24079;51.824;4.682;2023-07-08T12:42:32;8.38;;;6.18;;
37997;SDS011;24079;51.824;4.682;2023-07-08T12:44:58;10.48;;;6.43;;
37997;SDS011;24079;51.824;4.682;2023-07-08T12:47:24;9.23;;;6.10;;
37997;SDS011;24079;51.824;4.682;2023-07-08T12:49:49;14.20;;;5.78;;
37997;SDS011;24079;51.824;4.682;2023-07-08T12:52:19;13.13;;;6.38;;
37997;SDS011;24079;51.824;4.682;2023-07-08T12:54:48;9.25;;;5.78;;
37997;SDS011;24079;51.824;4.682;2023-07-08T12:57:15;17.58;;;6.47;;
37997;SDS011;24079;51.824;4.682;2023-07-08T12:59:43;9.85;;;6.03;;
37997;SDS011;24079;51.824;4.682;2023-07-08T13:02:14;11.05;;;6.38;;
37997;SDS011;24079;51.824;4.682;2023-07-08T13:04:44;17.05;;;6.47;;
37997;SDS011;24079;51.824;4.682;2023-07-08T13:07:17;10.57;;;6.15;;
37997;SDS011;24079;51.824;4.682;2023-07-08T13:09:48;13.55;;;6.50;;
37997;SDS011;24079;51.824;4.682;2023-07-08T13:12:17;14.30;;;6.40;;
37997;SDS011;24079;51.824;4.682;2023-07-08T13:14:48;11.10;;;6.78;;
37997;SDS011;24079;51.824;4.682;2023-07-08T13:17:14;9.55;;;5.75;;
37997;SDS011;24079;51.824;4.682;2023-07-08T13:19:41;16.80;;;6.85;;
37997;SDS011;24079;51.824;4.682;2023-07-08T13:22:10;11.50;;;6.97;;
37997;SDS011;24079;51.824;4.682;2023-07-08T13:24:40;9.73;;;6.20;;
37997;SDS011;24079;51.824;4.682;2023-07-08T13:27:08;11.00;;;6.45;;
37997;SDS011;24079;51.824;4.682;2023-07-08T13:29:56;15.27;;;7.13;;
37997;SDS011;24079;51.824;4.682;2023-07-08T13:32:45;14.32;;;6.80;;
37997;SDS011;24079;51.824;4.682;2023-07-08T13:35:21;12.95;;;6.53;;
37997;SDS011;24079;51.824;4.682;2023-07-08T13:37:47;11.70;;;6.15;;
37997;SDS011;24079;51.824;4.682;2023-07-08T13:40:15;13.63;;;7.20;;
37997;SDS011;24079;51.824;4.682;2023-07-08T13:42:51;9.60;;;6.13;;
37997;SDS011;24079;51.824;4.682;2023-07-08T13:47:58;14.05;;;6.28;;
37997;SDS011;24079;51.824;4.682;2023-07-08T13:50:43;11.88;;;7.10;;
37997;SDS011;24079;51.824;4.682;2023-07-08T13:53:17;10.82;;;6.50;;
37997;SDS011;24079;51.824;4.682;2023-07-08T13:55:45;14.52;;;6.85;;
37997;SDS011;24079;51.824;4.682;2023-07-08T13:58:14;12.18;;;6.80;;
37997;SDS011;24079;51.824;4.682;2023-07-08T14:00:42;12.13;;;7.05;;
37997;SDS011;24079;51.824;4.682;2023-07-08T14:03:11;13.85;;;6.80;;
37997;SDS011;24079;51.824;4.682;2023-07-08T14:05:39;9.00;;;5.97;;
37997;SDS011;24079;51.824;4.682;2023-07-08T14:08:15;9.30;;;6.45;;
37997;SDS011;24079;51.824;4.682;2023-07-08T14:10:43;11.88;;;7.30;;
37997;SDS011;24079;51.824;4.682;2023-07-08T14:13:10;11.32;;;6.30;;
37997;SDS011;24079;51.824;4.682;2023-07-08T14:15:37;9.98;;;6.60;;
37997;SDS011;24079;51.824;4.682;2023-07-08T14:18:04;16.58;;;6.90;;
37997;SDS011;24079;51.824;4.682;2023-07-08T14:20:30;10.85;;;7.20;;
37997;SDS011;24079;51.824;4.682;2023-07-08T14:22:57;11.73;;;6.63;;
37997;SDS011;24079;51.824;4.682;2023-07-08T14:25:23;13.25;;;7.13;;
37997;SDS011;24079;51.824;4.682;2023-07-08T14:27:50;10.07;;;6.50;;
37997;SDS011;24079;51.824;4.682;2023-07-08T14:30:16;11.60;;;7.38;;
37997;SDS011;24079;51.824;4.682;2023-07-08T14:32:42;13.32;;;6.95;;
37997;SDS011;24079;51.824;4.682;2023-07-08T14:37:41;11.63;;;7.53;;
37997;SDS011;24079;51.824;4.682;2023-07-08T14:40:11;11.38;;;7.00;;
37997;SDS011;24079;51.824;4.682;2023-07-08T14:42:55;17.83;;;6.65;;
37997;SDS011;24079;51.824;4.682;2023-07-08T14:45:24;11.63;;;6.70;;
37997;SDS011;24079;51.824;4.682;2023-07-08T14:47:50;12.82;;;6.80;;
37997;SDS011;24079;51.824;4.682;2023-07-08T14:50:17;9.60;;;6.50;;
37997;SDS011;24079;51.824;4.682;2023-07-08T14:52:43;10.70;;;6.47;;
37997;SDS011;24079;51.824;4.682;2023-07-08T14:55:09;12.32;;;6.97;;
37997;SDS011;24079;51.824;4.682;2023-07-08T14:57:42;9.82;;;6.45;;
37997;SDS011;24079;51.824;4.682;2023-07-08T15:00:12;8.98;;;5.57;;
37997;SDS011;24079;51.824;4.682;2023-07-08T15:02:41;10.57;;;6.32;;
37997;SDS011;24079;51.824;4.682;2023-07-08T15:05:19;12.07;;;6.30;;
37997;SDS011;24079;51.824;4.682;2023-07-08T15:07:50;12.60;;;6.72;;
37997;SDS011;24079;51.824;4.682;2023-07-08T15:10:18;10.82;;;6.60;;
37997;SDS011;24079;51.824;4.682;2023-07-08T15:12:46;12.15;;;7.15;;
37997;SDS011;24079;51.824;4.682;2023-07-08T15:15:15;13.15;;;6.53;;
37997;SDS011;24079;51.824;4.682;2023-07-08T15:17:43;12.73;;;6.20;;
37997;SDS011;24079;51.824;4.682;2023-07-08T15:20:11;12.95;;;7.32;;
37997;SDS011;24079;51.824;4.682;2023-07-08T15:22:43;7.88;;;5.68;;
37997;SDS011;24079;51.824;4.682;2023-07-08T15:25:10;11.90;;;6.18;;
37997;SDS011;24079;51.824;4.682;2023-07-08T15:27:39;11.20;;;6.72;;
37997;SDS011;24079;51.824;4.682;2023-07-08T15:30:18;10.02;;;6.47;;
37997;SDS011;24079;51.824;4.682;2023-07-08T15:32:49;9.07;;;6.03;;
37997;SDS011;24079;51.824;4.682;2023-07-08T15:35:18;12.25;;;6.90;;
37997;SDS011;24079;51.824;4.682;2023-07-08T15:37:55;12.00;;;6.40;;
37997;SDS011;24079;51.824;4.682;2023-07-08T15:40:23;11.55;;;7.03;;
37997;SDS011;24079;51.824;4.682;2023-07-08T15:42:51;10.68;;;6.53;;
37997;SDS011;24079;51.824;4.682;2023-07-08T15:45:26;8.18;;;6.07;;
37997;SDS011;24079;51.824;4.682;2023-07-08T15:47:55;12.05;;;7.22;;
37997;SDS011;24079;51.824;4.682;2023-07-08T15:50:23;10.85;;;6.95;;
37997;SDS011;24079;51.824;4.682;2023-07-08T15:52:50;10.23;;;6.45;;
37997;SDS011;24079;51.824;4.682;2023-07-08T15:55:38;14.32;;;7.03;;
37997;SDS011;24079;51.824;4.682;2023-07-08T15:58:06;12.30;;;6.63;;
37997;SDS011;24079;51.824;4.682;2023-07-08T16:00:51;12.60;;;6.35;;
37997;SDS011;24079;51.824;4.682;2023-07-08T16:03:26;10.48;;;6.53;;
37997;SDS011;24079;51.824;4.682;2023-07-08T16:05:54;10.40;;;5.85;;
37997;SDS011;24079;51.824;4.682;2023-07-08T16:08:22;10.82;;;6.15;;
37997;SDS011;24079;51.824;4.682;2023-07-08T16:10:58;12.82;;;6.68;;
37997;SDS011;24079;51.824;4.682;2023-07-08T16:13:28;13.35;;;6.20;;
37997;SDS011;24079;51.824;4.682;2023-07-08T16:15:57;11.00;;;6.60;;
37997;SDS011;24079;51.824;4.682;2023-07-08T16:18:23;10.52;;;6.38;;
37997;SDS011;24079;51.824;4.682;2023-07-08T16:20:50;12.57;;;6.97;;
37997;SDS011;24079;51.824;4.682;2023-07-08T16:23:17;15.68;;;7.03;;
37997;SDS011;24079;51.824;4.682;2023-07-08T16:25:44;11.15;;;5.70;;
37997;SDS011;24079;51.824;4.682;2023-07-08T16:28:25;13.55;;;6.43;;